createdAt,value
2023-03-05T00:01:50.469Z,1.77
2023-03-05T00:04:19.414Z,1.35
2023-03-05T00:06:48.566Z,3.45
2023-03-05T00:09:18.998Z,1.38
2023-03-05T00:11:48.055Z,1.83
2023-03-05T00:14:17.089Z,2.25
2023-03-05T00:16:46.039Z,1.45
2023-03-05T00:19:14.958Z,1.98
2023-03-05T00:21:44.148Z,3.60
2023-03-05T00:24:16.829Z,2.30
2023-03-05T00:26:47.941Z,2.08
2023-03-05T00:29:19.610Z,1.48
2023-03-05T00:31:48.774Z,4.20
2023-03-05T00:34:19.892Z,2.58
2023-03-05T00:36:52.214Z,1.58
2023-03-05T00:39:22.948Z,2.28
2023-03-05T00:41:53.897Z,3.58
2023-03-05T00:44:22.916Z,3.83
2023-03-05T00:46:52.886Z,6.55
2023-03-05T00:49:21.995Z,2.03
2023-03-05T00:51:50.932Z,2.88
2023-03-05T00:54:19.902Z,2.08
2023-03-05T00:56:49.344Z,1.58
2023-03-05T00:59:19.897Z,2.42
2023-03-05T01:01:48.876Z,1.83
2023-03-05T01:04:17.812Z,3.42
2023-03-05T01:06:46.927Z,2.38
2023-03-05T01:09:16.279Z,3.17
2023-03-05T01:11:45.182Z,2.30
2023-03-05T01:14:14.702Z,4.72
2023-03-05T01:16:45.097Z,2.20
2023-03-05T01:19:15.062Z,3.50
2023-03-05T01:21:44.458Z,2.78
2023-03-05T01:24:13.373Z,4.22
2023-03-05T01:26:42.346Z,1.38
2023-03-05T01:29:11.508Z,1.85
2023-03-05T01:31:40.612Z,1.52
2023-03-05T01:34:11.138Z,2.05
2023-03-05T01:36:42.339Z,3.30
2023-03-05T01:39:12.957Z,1.63
2023-03-05T01:41:42.081Z,2.20
2023-03-05T01:44:23.156Z,2.28
2023-03-05T01:46:52.232Z,1.98
2023-03-05T01:49:26.222Z,2.50
2023-03-05T01:52:09.138Z,1.92
2023-03-05T01:54:41.878Z,1.85
2023-03-05T01:57:14.933Z,2.92
2023-03-05T01:59:46.600Z,3.47
2023-03-05T02:02:15.914Z,2.83
2023-03-05T02:04:52.084Z,3.08
2023-03-05T02:07:21.403Z,1.85
2023-03-05T02:09:50.400Z,2.42
2023-03-05T02:12:20.252Z,1.88
2023-03-05T02:15:10.875Z,2.00
2023-03-05T02:17:39.873Z,1.25
2023-03-05T02:20:12.915Z,1.30
2023-03-05T02:22:43.418Z,1.88
2023-03-05T02:25:17.431Z,1.60
2023-03-05T02:27:52.764Z,4.85
2023-03-05T02:30:22.010Z,3.83
2023-03-05T02:32:51.132Z,1.20
2023-03-05T02:35:21.772Z,1.35
2023-03-05T02:37:52.426Z,2.58
2023-03-05T02:40:21.725Z,1.33
2023-03-05T02:42:50.883Z,1.38
2023-03-05T02:45:20.321Z,1.00
2023-03-05T02:47:49.315Z,0.85
2023-03-05T02:50:18.286Z,1.13
2023-03-05T02:52:47.263Z,1.60
2023-03-05T02:55:20.013Z,0.80
2023-03-05T02:57:49.351Z,1.50
2023-03-05T03:00:19.099Z,2.47
2023-03-05T03:02:48.040Z,1.95
2023-03-05T03:05:17.361Z,1.30
2023-03-05T03:07:46.560Z,1.50
2023-03-05T03:10:15.656Z,1.27
2023-03-05T03:12:46.893Z,1.50
2023-03-05T03:15:18.132Z,1.48
2023-03-05T03:17:47.499Z,2.92
2023-03-05T03:20:17.940Z,2.60
2023-03-05T03:22:47.648Z,1.13
2023-03-05T03:25:17.915Z,1.52
2023-03-05T03:27:48.273Z,1.55
2023-03-05T03:30:17.679Z,1.15
2023-03-05T03:32:46.672Z,2.80
2023-03-05T03:35:15.669Z,2.83
2023-03-05T03:37:44.648Z,1.58
2023-03-05T03:40:14.009Z,1.92
2023-03-05T03:42:42.955Z,1.83
2023-03-05T03:45:14.545Z,1.45
2023-03-05T03:47:43.541Z,3.63
2023-03-05T03:50:13.516Z,1.77
2023-03-05T03:52:42.546Z,2.63
2023-03-05T03:55:12.689Z,3.28
2023-03-05T03:57:41.562Z,2.70
2023-03-05T04:00:14.079Z,4.88
2023-03-05T04:02:44.100Z,2.10
2023-03-05T04:05:13.063Z,3.00
2023-03-05T04:07:42.072Z,2.03
2023-03-05T04:10:12.429Z,4.00
2023-03-05T04:12:46.287Z,4.03
2023-03-05T04:15:16.993Z,2.45
2023-03-05T04:17:45.843Z,3.08
2023-03-05T04:20:15.031Z,2.55
2023-03-05T04:22:43.963Z,2.95
2023-03-05T04:25:12.948Z,4.05
2023-03-05T04:27:41.854Z,1.60
2023-03-05T04:30:14.745Z,4.18
2023-03-05T04:32:45.131Z,2.00
2023-03-05T04:35:14.050Z,1.45
2023-03-05T04:37:43.013Z,1.27
2023-03-05T04:40:13.178Z,1.70
2023-03-05T04:42:42.420Z,1.70
2023-03-05T04:45:12.441Z,2.55
2023-03-05T04:47:41.742Z,1.73
2023-03-05T04:50:13.600Z,3.97
2023-03-05T04:52:43.456Z,2.53
2023-03-05T04:55:14.102Z,4.15
2023-03-05T04:57:43.520Z,3.40
2023-03-05T05:00:15.120Z,1.52
2023-03-05T05:02:45.184Z,1.05
2023-03-05T05:05:18.803Z,2.97
2023-03-05T05:07:48.491Z,1.95
2023-03-05T05:10:18.746Z,1.33
2023-03-05T05:12:47.887Z,1.05
2023-03-05T05:15:17.098Z,3.95
2023-03-05T05:17:46.124Z,1.42
2023-03-05T05:20:18.236Z,1.50
2023-03-05T05:22:47.188Z,2.22
2023-03-05T05:25:16.088Z,4.20
2023-03-05T05:27:44.980Z,2.33
2023-03-05T05:30:14.693Z,1.70
2023-03-05T05:32:43.803Z,1.77
2023-03-05T05:35:13.307Z,1.38
2023-03-05T05:37:43.665Z,1.65
2023-03-05T05:40:13.782Z,1.40
2023-03-05T05:42:42.774Z,2.22
2023-03-05T05:45:12.874Z,1.27
2023-03-05T05:47:41.921Z,0.95
2023-03-05T05:50:12.753Z,2.88
2023-03-05T05:52:43.279Z,1.48
2023-03-05T05:55:12.932Z,1.45
2023-03-05T05:57:42.042Z,1.48
2023-03-05T06:00:13.878Z,1.45
2023-03-05T06:02:45.008Z,3.20
2023-03-05T06:05:16.131Z,1.25
2023-03-05T06:07:46.411Z,4.28
2023-03-05T06:10:15.662Z,1.42
2023-03-05T06:12:44.863Z,4.38
2023-03-05T06:15:13.915Z,3.40
2023-03-05T06:17:42.828Z,1.20
2023-03-05T06:20:13.348Z,2.30
2023-03-05T06:22:42.379Z,1.30
2023-03-05T06:25:13.275Z,2.22
2023-03-05T06:27:42.407Z,3.25
2023-03-05T06:30:13.360Z,2.88
2023-03-05T06:32:42.424Z,2.28
2023-03-05T06:35:11.964Z,1.95
2023-03-05T06:37:41.027Z,7.18
2023-03-05T06:40:13.277Z,2.40
2023-03-05T06:42:42.734Z,2.67
2023-03-05T06:45:12.485Z,2.45
2023-03-05T06:47:41.467Z,3.47
2023-03-05T06:50:11.956Z,1.73
2023-03-05T06:52:41.806Z,3.35
2023-03-05T06:55:16.004Z,2.38
2023-03-05T06:57:45.489Z,1.80
2023-03-05T07:00:19.855Z,1.17
2023-03-05T07:02:51.899Z,1.48
2023-03-05T07:05:21.021Z,0.93
2023-03-05T07:07:49.962Z,1.90
2023-03-05T07:10:21.367Z,3.28
2023-03-05T07:12:51.031Z,1.30
2023-03-05T07:15:19.996Z,1.38
2023-03-05T07:17:48.954Z,1.75
2023-03-05T07:20:18.286Z,2.30
2023-03-05T07:22:48.535Z,3.72
2023-03-05T07:25:21.548Z,2.28
2023-03-05T07:27:52.343Z,3.17
2023-03-05T07:30:21.501Z,2.63
2023-03-05T07:32:50.616Z,2.65
2023-03-05T07:35:20.086Z,1.50
2023-03-05T07:37:49.027Z,3.88
2023-03-05T07:40:18.831Z,2.45
2023-03-05T07:42:47.891Z,3.03
2023-03-05T07:45:27.169Z,1.85
2023-03-05T07:47:56.304Z,1.75
2023-03-05T07:50:25.795Z,4.93
2023-03-05T07:52:54.786Z,3.50
2023-03-05T07:55:23.897Z,3.60
2023-03-05T07:57:53.279Z,3.85
2023-03-05T08:00:22.890Z,2.30
2023-03-05T08:02:53.339Z,7.10
2023-03-05T08:05:22.617Z,5.85
2023-03-05T08:07:51.632Z,4.78
2023-03-05T08:10:20.812Z,3.35
2023-03-05T08:12:49.867Z,4.18
2023-03-05T08:15:18.952Z,4.95
2023-03-05T08:17:49.647Z,3.03
2023-03-05T08:20:21.522Z,3.55
2023-03-05T08:22:50.552Z,4.28
2023-03-05T08:25:21.571Z,4.05
2023-03-05T08:27:50.614Z,2.85
2023-03-05T08:30:23.268Z,5.20
2023-03-05T08:32:57.517Z,3.95
2023-03-05T08:35:28.014Z,3.22
2023-03-05T08:37:57.695Z,2.22
2023-03-05T08:40:31.396Z,2.78
2023-03-05T08:43:01.019Z,2.83
2023-03-05T08:45:30.406Z,3.63
2023-03-05T08:48:00.055Z,4.13
2023-03-05T08:50:33.121Z,3.35
2023-03-05T08:53:03.475Z,3.00
2023-03-05T08:55:32.493Z,6.20
2023-03-05T08:58:01.551Z,3.60
2023-03-05T09:00:30.804Z,4.18
2023-03-05T09:02:59.858Z,3.38
2023-03-05T09:05:30.298Z,3.17
2023-03-05T09:08:00.513Z,5.15
2023-03-05T09:10:29.505Z,5.15
2023-03-05T09:12:58.549Z,4.97
2023-03-05T09:15:27.675Z,4.32
2023-03-05T09:17:56.839Z,5.43
2023-03-05T09:20:26.886Z,5.28
2023-03-05T09:22:57.574Z,2.55
2023-03-05T09:25:26.679Z,2.38
2023-03-05T09:27:55.928Z,3.03
2023-03-05T09:30:25.136Z,2.50
2023-03-05T09:32:54.381Z,3.45
2023-03-05T09:35:23.704Z,3.13
2023-03-05T09:37:52.738Z,2.30
2023-03-05T09:40:23.972Z,3.97
2023-03-05T09:43:04.868Z,2.20
2023-03-05T09:45:41.462Z,2.03
2023-03-05T09:48:18.965Z,2.65
2023-03-05T09:50:52.145Z,2.08
2023-03-05T09:53:32.681Z,2.17
2023-03-05T09:56:11.841Z,1.25
2023-03-05T09:58:43.832Z,5.75
2023-03-05T10:01:17.058Z,4.32
2023-03-05T10:03:54.710Z,1.50
2023-03-05T10:06:26.294Z,1.70
2023-03-05T10:08:59.078Z,3.90
2023-03-05T10:11:48.420Z,1.60
2023-03-05T10:14:29.336Z,2.80
2023-03-05T10:17:11.009Z,4.50
2023-03-05T10:20:04.627Z,2.03
2023-03-05T10:22:38.158Z,3.25
2023-03-05T10:25:21.788Z,1.08
2023-03-05T10:27:58.177Z,2.15
2023-03-05T10:30:40.529Z,1.92
2023-03-05T10:33:19.469Z,1.33
2023-03-05T10:36:19.297Z,3.80
2023-03-05T10:39:07.040Z,3.25
2023-03-05T10:41:45.064Z,2.28
2023-03-05T10:44:21.300Z,4.72
2023-03-05T10:46:51.612Z,2.85
2023-03-05T10:49:24.130Z,2.28
2023-03-05T10:52:01.134Z,3.60
2023-03-05T10:54:32.667Z,4.82
2023-03-05T10:57:06.121Z,2.03
2023-03-05T10:59:36.671Z,2.60
2023-03-05T11:02:08.879Z,3.08
2023-03-05T11:04:40.489Z,4.90
2023-03-05T11:07:34.642Z,3.40
2023-03-05T11:10:15.244Z,4.38
2023-03-05T11:12:45.214Z,3.92
2023-03-05T11:15:29.606Z,2.85
2023-03-05T11:18:24.468Z,4.47
2023-03-05T11:20:53.758Z,4.80
2023-03-05T11:23:24.865Z,2.88
2023-03-05T11:25:58.287Z,2.97
2023-03-05T11:28:33.627Z,3.65
2023-03-05T11:31:09.672Z,3.58
2023-03-05T11:33:39.115Z,2.80
2023-03-05T11:36:30.662Z,5.63
2023-03-05T11:39:02.363Z,2.10
2023-03-05T11:41:37.066Z,3.38
2023-03-05T11:44:13.598Z,4.28
2023-03-05T11:46:47.648Z,2.47
2023-03-05T11:49:21.153Z,2.63
2023-03-05T11:51:59.174Z,4.47
2023-03-05T11:54:36.626Z,3.72
2023-03-05T11:57:08.359Z,6.57
2023-03-05T11:59:40.871Z,6.05
2023-03-05T12:02:20.326Z,6.10
2023-03-05T12:04:52.595Z,3.67
2023-03-05T12:07:35.832Z,4.50
2023-03-05T12:10:05.728Z,4.53
2023-03-05T12:12:42.151Z,3.08
2023-03-05T12:15:47.724Z,2.58
2023-03-05T12:18:29.072Z,3.13
2023-03-05T12:21:05.879Z,4.82
2023-03-05T12:23:50.690Z,4.85
2023-03-05T12:26:21.182Z,4.18
2023-03-05T12:29:01.611Z,3.58
2023-03-05T12:31:39.537Z,6.38
2023-03-05T12:34:47.290Z,4.70
2023-03-05T12:37:54.690Z,6.00
2023-03-05T12:40:25.479Z,4.90
2023-03-05T12:42:57.078Z,1.58
2023-03-05T12:45:31.693Z,2.92
2023-03-05T12:48:37.822Z,2.53
2023-03-05T12:51:13.075Z,3.53
2023-03-05T12:56:25.217Z,3.60
2023-03-05T12:58:58.718Z,2.63
2023-03-05T13:01:42.253Z,2.47
2023-03-05T13:04:19.876Z,2.25
2023-03-05T13:07:00.185Z,2.63
2023-03-05T13:09:31.890Z,2.78
2023-03-05T13:12:05.713Z,5.97
2023-03-05T13:14:42.231Z,2.25
2023-03-05T13:17:35.967Z,2.38
2023-03-05T13:20:28.443Z,1.70
2023-03-05T13:23:16.245Z,2.30
2023-03-05T13:25:45.955Z,1.50
2023-03-05T13:28:17.128Z,1.85
2023-03-05T13:30:58.119Z,3.10
2023-03-05T13:33:30.722Z,1.98
2023-03-05T13:36:00.207Z,3.53
2023-03-05T13:38:35.909Z,2.65
2023-03-05T13:41:32.794Z,1.73
2023-03-05T13:44:03.653Z,1.98
2023-03-05T13:46:40.010Z,2.28
2023-03-05T13:49:20.584Z,3.33
2023-03-05T13:51:51.603Z,6.25
2023-03-05T13:54:23.651Z,2.00
2023-03-05T13:56:55.603Z,1.33
2023-03-05T13:59:28.373Z,1.85
2023-03-05T14:02:01.982Z,1.58
2023-03-05T14:04:32.595Z,1.33
2023-03-05T14:07:04.765Z,1.60
2023-03-05T14:09:48.958Z,2.63
2023-03-05T14:12:30.516Z,2.30
2023-03-05T14:15:02.449Z,3.50
2023-03-05T14:17:39.453Z,2.40
2023-03-05T14:20:19.146Z,2.30
2023-03-05T14:22:49.348Z,5.88
2023-03-05T14:25:33.994Z,3.20
2023-03-05T14:28:05.270Z,3.25
2023-03-05T14:30:36.371Z,2.78
2023-03-05T14:33:06.631Z,1.88
2023-03-05T14:35:37.568Z,2.90
2023-03-05T14:38:23.432Z,4.83
2023-03-05T14:40:54.151Z,2.30
2023-03-05T14:43:23.495Z,2.53
2023-03-05T14:45:52.660Z,4.60
2023-03-05T14:48:21.684Z,2.92
2023-03-05T14:50:56.479Z,3.05
2023-03-05T14:53:29.092Z,7.72
2023-03-05T14:55:59.510Z,7.78
2023-03-05T14:58:32.455Z,3.72
2023-03-05T15:01:02.309Z,3.80
2023-03-05T15:03:33.254Z,6.78
2023-03-05T15:06:03.318Z,3.47
2023-03-05T15:08:33.904Z,3.97
2023-03-05T15:11:07.041Z,3.55
2023-03-05T15:13:36.811Z,3.25
2023-03-05T15:16:08.073Z,3.20
2023-03-05T15:18:37.523Z,3.50
2023-03-05T15:21:07.270Z,2.22
2023-03-05T15:23:38.431Z,2.45
2023-03-05T15:26:13.124Z,2.33
2023-03-05T15:28:42.726Z,2.92
2023-03-05T15:31:12.408Z,2.50
2023-03-05T15:33:42.046Z,2.90
2023-03-05T15:36:11.373Z,3.10
2023-03-05T15:38:41.811Z,2.63
2023-03-05T15:41:12.556Z,2.38
2023-03-05T15:43:41.632Z,3.67
2023-03-05T15:46:10.650Z,5.32
2023-03-05T15:48:39.689Z,2.00
2023-03-05T15:51:09.262Z,2.33
2023-03-05T15:53:38.217Z,6.32
2023-03-05T15:56:08.066Z,3.20
2023-03-05T15:58:39.700Z,2.80
2023-03-05T16:01:14.631Z,2.33
2023-03-05T16:03:48.835Z,3.40
2023-03-05T16:06:20.728Z,5.13
2023-03-05T16:08:51.511Z,2.00
2023-03-05T16:11:22.480Z,5.60
2023-03-05T16:13:55.304Z,6.43
2023-03-05T16:16:25.854Z,2.72
2023-03-05T16:18:56.453Z,4.63
2023-03-05T16:21:25.822Z,1.60
2023-03-05T16:23:55.397Z,2.65
2023-03-05T16:26:24.504Z,2.13
2023-03-05T16:28:55.170Z,3.35
2023-03-05T16:31:24.310Z,2.53
2023-03-05T16:33:53.625Z,6.03
2023-03-05T16:36:25.888Z,3.33
2023-03-05T16:38:56.486Z,2.67
2023-03-05T16:41:26.621Z,3.50
2023-03-05T16:44:00.523Z,2.72
2023-03-05T16:46:33.254Z,2.90
2023-03-05T16:49:06.402Z,6.43
2023-03-05T16:51:44.087Z,6.10
2023-03-05T16:54:13.926Z,5.78
2023-03-05T16:56:43.271Z,7.57
2023-03-05T16:59:15.244Z,4.80
2023-03-05T17:01:46.918Z,5.28
2023-03-05T17:04:15.993Z,4.00
2023-03-05T17:06:47.326Z,3.30
2023-03-05T17:09:19.493Z,2.85
2023-03-05T17:11:49.019Z,2.80
2023-03-05T17:14:19.691Z,3.80
2023-03-05T17:16:48.899Z,4.38
2023-03-05T17:19:18.438Z,4.28
2023-03-05T17:21:50.834Z,4.57
2023-03-05T17:24:22.316Z,5.63
2023-03-05T17:26:52.105Z,3.65
2023-03-05T17:29:23.529Z,4.85
2023-03-05T17:31:53.915Z,4.40
2023-03-05T17:34:33.770Z,5.40
2023-03-05T17:37:06.274Z,4.80
2023-03-05T17:39:35.495Z,4.97
2023-03-05T17:42:04.695Z,7.63
2023-03-05T17:44:35.101Z,6.68
2023-03-05T17:47:04.299Z,3.85
2023-03-05T17:49:33.468Z,8.88
2023-03-05T17:52:03.097Z,5.05
2023-03-05T17:54:32.566Z,4.68
2023-03-05T17:57:02.009Z,6.22
2023-03-05T17:59:31.827Z,5.43
2023-03-05T18:02:02.944Z,7.75
2023-03-05T18:04:36.354Z,5.80
2023-03-05T18:07:09.108Z,8.45
2023-03-05T18:09:38.141Z,6.05
2023-03-05T18:12:07.685Z,5.25
2023-03-05T18:14:37.003Z,6.63
2023-03-05T18:17:07.521Z,7.38
2023-03-05T18:19:36.726Z,7.57
2023-03-05T18:22:06.493Z,9.57
2023-03-05T18:24:35.928Z,4.97
2023-03-05T18:27:05.068Z,7.13
2023-03-05T18:29:34.387Z,8.43
2023-03-05T18:32:14.199Z,8.45
2023-03-05T18:34:44.196Z,5.50
2023-03-05T18:37:13.363Z,7.70
2023-03-05T18:39:42.911Z,7.03
2023-03-05T18:42:14.211Z,6.28
2023-03-05T18:44:43.663Z,5.28
2023-03-05T18:47:14.216Z,5.10
2023-03-05T18:49:43.241Z,5.15
2023-03-05T18:52:13.232Z,5.53
2023-03-05T18:54:42.474Z,5.93
2023-03-05T18:57:11.605Z,4.88
2023-03-05T18:59:40.669Z,5.07
2023-03-05T19:02:15.779Z,5.63
2023-03-05T19:04:44.896Z,5.93
2023-03-05T19:07:15.332Z,6.07
2023-03-05T19:09:58.975Z,3.95
2023-03-05T19:12:31.914Z,9.18
2023-03-05T19:15:01.805Z,8.48
2023-03-05T19:17:34.714Z,7.00
2023-03-05T19:20:07.890Z,8.82
2023-03-05T19:22:36.909Z,8.13
2023-03-05T19:25:06.577Z,11.02
2023-03-05T19:27:35.730Z,18.42
2023-03-05T19:30:05.757Z,18.95
2023-03-05T19:32:36.490Z,18.75
2023-03-05T19:35:06.145Z,34.80
2023-03-05T19:37:35.074Z,27.58
2023-03-05T19:40:04.413Z,25.15
2023-03-05T19:42:33.499Z,51.67
2023-03-05T19:45:03.014Z,43.55
2023-03-05T19:47:33.252Z,32.78
2023-03-05T19:50:04.679Z,25.63
2023-03-05T19:52:33.830Z,24.08
2023-03-05T19:55:02.773Z,28.42
2023-03-05T19:57:32.006Z,30.65
2023-03-05T20:00:00.989Z,25.33
2023-03-05T20:02:30.011Z,27.95
2023-03-05T20:04:59.402Z,29.88
2023-03-05T20:07:29.967Z,22.95
2023-03-05T20:10:00.103Z,22.85
2023-03-05T20:12:29.222Z,26.58
2023-03-05T20:14:58.434Z,26.13
2023-03-05T20:17:27.364Z,27.73
2023-03-05T20:19:59.117Z,20.90
2023-03-05T20:22:29.570Z,23.45
2023-03-05T20:24:58.897Z,20.40
2023-03-05T20:27:27.937Z,18.80
2023-03-05T20:29:57.252Z,28.30
2023-03-05T20:32:26.699Z,20.20
2023-03-05T20:34:56.443Z,28.67
2023-03-05T20:38:12.845Z,28.02
2023-03-05T20:40:42.130Z,25.77
2023-03-05T20:43:11.215Z,35.95
2023-03-05T20:45:40.750Z,25.00
2023-03-05T20:48:09.954Z,22.30
2023-03-05T20:50:38.906Z,21.98
2023-03-05T20:53:09.952Z,20.23
2023-03-05T20:55:38.907Z,15.38
2023-03-05T20:58:08.099Z,16.52
2023-03-05T21:00:37.807Z,18.92
2023-03-05T21:03:07.377Z,22.63
2023-03-05T21:05:37.368Z,28.38
2023-03-05T21:08:06.788Z,25.92
2023-03-05T21:10:39.482Z,32.38
2023-03-05T21:13:08.498Z,44.15
2023-03-05T21:15:37.465Z,73.03
2023-03-05T21:18:06.670Z,59.95
2023-03-05T21:20:35.685Z,55.35
2023-03-05T21:23:05.110Z,24.48
2023-03-05T21:25:34.564Z,22.45
2023-03-05T21:28:09.457Z,16.73
2023-03-05T21:30:42.215Z,18.13
2023-03-05T21:33:13.445Z,15.05
2023-03-05T21:35:43.288Z,14.23
2023-03-05T21:38:14.274Z,11.07
2023-03-05T21:40:45.822Z,14.82
2023-03-05T21:43:18.798Z,11.55
2023-03-05T21:45:48.436Z,17.58
2023-03-05T21:48:17.960Z,11.90
2023-03-05T21:50:48.907Z,16.60
2023-03-05T21:53:19.376Z,11.90
2023-03-05T21:56:22.161Z,14.27
2023-03-05T21:58:54.736Z,15.13
2023-03-05T22:01:24.453Z,12.43
2023-03-05T22:03:54.146Z,14.30
2023-03-05T22:06:24.332Z,14.20
2023-03-05T22:08:53.260Z,14.88
2023-03-05T22:11:22.537Z,14.18
2023-03-05T22:13:52.861Z,10.38
2023-03-05T22:16:24.379Z,12.35
2023-03-05T22:18:54.146Z,15.98
2023-03-05T22:21:25.867Z,12.90
2023-03-05T22:23:57.352Z,11.32
2023-03-05T22:26:27.994Z,14.07
2023-03-05T22:28:58.314Z,13.90
2023-03-05T22:31:28.775Z,16.55
2023-03-05T22:33:58.333Z,15.32
2023-03-05T22:36:27.337Z,11.93
2023-03-05T22:38:56.250Z,9.80
2023-03-05T22:41:25.203Z,11.48
2023-03-05T22:43:54.098Z,13.13
2023-03-05T22:46:26.151Z,13.48
2023-03-05T22:48:55.772Z,11.82
2023-03-05T22:51:24.740Z,12.18
2023-03-05T22:53:53.673Z,10.93
2023-03-05T22:56:23.198Z,14.02
2023-03-05T22:58:52.252Z,11.57
2023-03-05T23:01:23.739Z,13.35
2023-03-05T23:04:40.341Z,12.82
2023-03-05T23:07:12.431Z,13.20
2023-03-05T23:09:41.592Z,14.75
2023-03-05T23:12:11.426Z,14.32
2023-03-05T23:14:40.419Z,22.83
2023-03-05T23:17:10.760Z,24.48
2023-03-05T23:19:39.994Z,20.35
2023-03-05T23:22:10.787Z,19.05
2023-03-05T23:24:39.963Z,14.43
2023-03-05T23:27:09.275Z,14.05
2023-03-05T23:30:16.207Z,11.55
2023-03-05T23:32:49.042Z,13.45
2023-03-05T23:35:20.162Z,13.30
2023-03-05T23:37:49.148Z,17.92
2023-03-05T23:40:21.636Z,13.60
2023-03-05T23:42:51.214Z,15.10
2023-03-05T23:45:21.286Z,13.02
2023-03-05T23:47:53.044Z,12.73
2023-03-05T23:50:24.341Z,12.80
2023-03-05T23:52:55.254Z,12.93
2023-03-05T23:55:27.107Z,10.90
2023-03-05T23:57:56.702Z,12.73
